createdAt,value
2019-02-20T00:00:21.259Z,7.70
2019-02-20T00:02:53.043Z,8.30
2019-02-20T00:05:23.200Z,8.63
2019-02-20T00:07:54.363Z,8.63
2019-02-20T00:10:24.541Z,10.17
2019-02-20T00:12:54.719Z,8.07
2019-02-20T00:15:24.878Z,8.00
2019-02-20T00:17:55.039Z,8.23
2019-02-20T00:20:25.186Z,9.10
2019-02-20T00:22:55.343Z,9.10
2019-02-20T00:25:25.500Z,8.10
2019-02-20T00:27:55.748Z,9.00
2019-02-20T00:30:25.918Z,8.37
2019-02-20T00:32:56.060Z,8.67
2019-02-20T00:35:26.331Z,8.87
2019-02-20T00:37:56.512Z,8.60
2019-02-20T00:40:26.680Z,8.93
2019-02-20T00:42:56.837Z,8.53
2019-02-20T00:45:44.855Z,9.00
2019-02-20T00:48:33.949Z,9.60
2019-02-20T00:51:11.773Z,8.60
2019-02-20T00:53:49.868Z,8.30
2019-02-20T00:56:20.043Z,7.73
2019-02-20T00:58:50.224Z,10.27
2019-02-20T01:01:20.395Z,8.97
2019-02-20T01:03:50.578Z,8.90
2019-02-20T01:06:20.728Z,8.53
2019-02-20T01:08:50.874Z,8.67
2019-02-20T01:11:21.037Z,8.33
2019-02-20T01:13:51.199Z,9.03
2019-02-20T01:16:23.873Z,7.87
2019-02-20T01:18:54.043Z,8.10
2019-02-20T01:21:24.267Z,8.50
2019-02-20T01:23:54.419Z,8.43
2019-02-20T01:26:24.571Z,8.80
2019-02-20T01:28:54.744Z,8.13
2019-02-20T01:31:24.915Z,8.50
2019-02-20T01:33:55.079Z,9.20
2019-02-20T01:36:25.253Z,8.83
2019-02-20T01:38:59.876Z,9.30
2019-02-20T01:41:31.664Z,10.60
2019-02-20T01:44:01.823Z,9.00
2019-02-20T01:46:32.007Z,9.27
2019-02-20T01:49:02.176Z,9.87
2019-02-20T01:51:32.332Z,9.20
2019-02-20T01:54:02.542Z,9.27
2019-02-20T01:56:32.683Z,9.40
2019-02-20T01:59:02.856Z,9.17
2019-02-20T02:01:33.040Z,9.07
2019-02-20T02:04:03.410Z,8.73
2019-02-20T02:06:33.560Z,9.30
2019-02-20T02:09:05.175Z,8.90
2019-02-20T02:11:36.092Z,9.27
2019-02-20T02:14:06.392Z,8.77
2019-02-20T02:16:36.556Z,8.87
2019-02-20T02:19:06.688Z,9.30
2019-02-20T02:21:36.868Z,8.60
2019-02-20T02:24:10.164Z,9.10
2019-02-20T02:26:41.972Z,8.20
2019-02-20T02:29:12.131Z,9.43
2019-02-20T02:31:42.374Z,8.67
2019-02-20T02:34:12.603Z,8.23
2019-02-20T02:36:42.773Z,10.07
2019-02-20T02:39:13.895Z,8.53
2019-02-20T02:41:44.851Z,8.97
2019-02-20T02:44:15.175Z,9.00
2019-02-20T02:46:45.343Z,9.33
2019-02-20T02:49:15.483Z,10.90
2019-02-20T02:51:45.666Z,9.77
2019-02-20T02:54:16.652Z,9.50
2019-02-20T02:56:46.865Z,10.00
2019-02-20T02:59:17.086Z,9.13
2019-02-20T03:01:47.363Z,8.40
2019-02-20T03:04:17.598Z,10.20
2019-02-20T03:06:47.783Z,11.20
2019-02-20T03:09:17.943Z,8.93
2019-02-20T03:11:48.087Z,9.23
2019-02-20T03:14:18.252Z,9.20
2019-02-20T03:16:48.415Z,9.87
2019-02-20T03:19:19.446Z,8.00
2019-02-20T03:21:49.587Z,9.47
2019-02-20T03:24:19.753Z,8.67
2019-02-20T03:26:49.885Z,9.90
2019-02-20T03:29:20.056Z,8.93
2019-02-20T03:31:50.197Z,8.70
2019-02-20T03:34:20.336Z,8.70
2019-02-20T03:36:50.523Z,8.70
2019-02-20T03:39:20.680Z,9.97
2019-02-20T03:41:50.840Z,10.03
2019-02-20T03:44:20.989Z,9.13
2019-02-20T03:46:51.154Z,9.33
2019-02-20T03:49:21.300Z,9.27
2019-02-20T03:51:51.518Z,9.20
2019-02-20T03:54:21.691Z,9.43
2019-02-20T03:56:51.866Z,9.70
2019-02-20T03:59:22.097Z,9.40
2019-02-20T04:01:52.270Z,10.13
2019-02-20T04:04:22.472Z,9.00
2019-02-20T04:06:52.639Z,9.90
2019-02-20T04:09:22.816Z,10.10
2019-02-20T04:11:52.968Z,10.27
2019-02-20T04:14:23.139Z,8.90
2019-02-20T04:16:53.334Z,10.20
2019-02-20T04:19:23.532Z,8.87
2019-02-20T04:21:53.705Z,8.43
2019-02-20T04:24:23.872Z,9.20
2019-02-20T04:26:54.040Z,10.20
2019-02-20T04:29:24.236Z,9.80
2019-02-20T04:31:54.441Z,10.30
2019-02-20T04:34:24.656Z,10.07
2019-02-20T04:36:55.800Z,10.47
2019-02-20T04:39:25.965Z,10.20
2019-02-20T04:41:56.138Z,11.77
2019-02-20T04:44:26.291Z,9.70
2019-02-20T04:46:56.467Z,8.80
2019-02-20T04:49:26.602Z,10.80
2019-02-20T04:51:56.755Z,9.77
2019-02-20T04:54:27.021Z,9.77
2019-02-20T04:56:57.159Z,10.37
2019-02-20T04:59:27.338Z,11.07
2019-02-20T05:01:57.493Z,11.13
2019-02-20T05:04:27.698Z,11.20
2019-02-20T05:06:57.918Z,10.03
2019-02-20T05:09:28.135Z,11.53
2019-02-20T05:11:58.287Z,11.67
2019-02-20T05:14:28.456Z,10.83
2019-02-20T05:16:58.691Z,11.10
2019-02-20T05:19:31.437Z,9.70
2019-02-20T05:22:01.581Z,10.70
2019-02-20T05:24:31.842Z,12.03
2019-02-20T05:27:01.991Z,12.23
2019-02-20T05:29:32.175Z,11.40
2019-02-20T05:32:05.213Z,11.97
2019-02-20T05:34:35.351Z,11.40
2019-02-20T05:37:05.556Z,11.87
2019-02-20T05:39:35.777Z,11.87
2019-02-20T05:42:05.976Z,11.20
2019-02-20T05:44:36.936Z,11.97
2019-02-20T05:47:07.183Z,12.60
2019-02-20T05:49:37.326Z,13.23
2019-02-20T05:52:07.602Z,11.50
2019-02-20T05:54:37.744Z,11.80
2019-02-20T05:57:07.911Z,11.90
2019-02-20T05:59:38.104Z,11.87
2019-02-20T06:02:08.286Z,13.30
2019-02-20T06:04:38.449Z,12.27
2019-02-20T06:07:08.948Z,12.00
2019-02-20T06:09:40.121Z,12.80
2019-02-20T06:12:10.282Z,12.00
2019-02-20T06:14:40.476Z,11.80
2019-02-20T06:17:10.634Z,13.20
2019-02-20T06:19:40.795Z,11.97
2019-02-20T06:22:10.983Z,12.63
2019-02-20T06:24:44.040Z,13.80
2019-02-20T06:27:13.084Z,13.00
2019-02-20T06:29:43.286Z,13.40
2019-02-20T06:32:13.456Z,12.80
2019-02-20T06:34:43.634Z,13.53
2019-02-20T06:37:13.768Z,12.90
2019-02-20T06:39:43.937Z,12.73
2019-02-20T06:42:14.109Z,13.60
2019-02-20T06:44:44.263Z,13.67
2019-02-20T06:47:14.443Z,13.37
2019-02-20T06:49:44.747Z,14.03
2019-02-20T06:52:15.911Z,13.70
2019-02-20T06:54:53.551Z,14.80
2019-02-20T06:57:17.983Z,15.27
2019-02-20T06:59:48.167Z,14.70
2019-02-20T07:02:18.371Z,14.60
2019-02-20T07:05:30.265Z,15.97
2019-02-20T07:08:48.941Z,14.67
2019-02-20T07:12:18.129Z,15.27
2019-02-20T07:15:26.511Z,14.47
2019-02-20T07:18:29.575Z,14.53
2019-02-20T07:21:46.824Z,15.83
2019-02-20T07:25:03.843Z,15.37
2019-02-20T07:28:10.751Z,14.67
2019-02-20T07:30:40.922Z,15.00
2019-02-20T07:33:11.095Z,17.00
2019-02-20T07:35:41.324Z,16.60
2019-02-20T07:38:12.445Z,16.50
2019-02-20T07:40:42.613Z,15.03
2019-02-20T07:43:12.771Z,15.67
2019-02-20T07:45:42.974Z,15.57
2019-02-20T07:48:13.155Z,16.87
2019-02-20T07:50:43.335Z,15.13
2019-02-20T07:53:13.487Z,17.20
2019-02-20T07:55:43.670Z,15.47
2019-02-20T07:58:13.836Z,15.43
2019-02-20T08:00:44.027Z,16.37
2019-02-20T08:03:14.180Z,15.63
2019-02-20T08:05:44.375Z,15.77
2019-02-20T08:08:15.510Z,14.07
2019-02-20T08:10:45.701Z,15.87
2019-02-20T08:13:16.844Z,16.27
2019-02-20T08:15:47.029Z,15.93
2019-02-20T08:18:17.205Z,16.80
2019-02-20T08:20:47.572Z,16.07
2019-02-20T08:23:17.780Z,17.03
2019-02-20T08:25:48.035Z,15.87
2019-02-20T08:28:18.179Z,15.17
2019-02-20T08:30:49.322Z,15.80
2019-02-20T08:33:19.501Z,14.93
2019-02-20T08:35:49.693Z,16.07
2019-02-20T08:38:19.856Z,16.33
2019-02-20T08:40:50.034Z,15.97
2019-02-20T08:43:20.239Z,16.17
2019-02-20T08:45:51.355Z,16.00
2019-02-20T08:48:21.564Z,15.93
2019-02-20T08:50:51.696Z,16.83
2019-02-20T08:53:21.846Z,16.67
2019-02-20T08:55:52.003Z,17.20
2019-02-20T08:58:22.239Z,17.83
2019-02-20T09:00:52.467Z,17.80
2019-02-20T09:03:22.623Z,18.17
2019-02-20T09:05:52.837Z,14.80
2019-02-20T09:08:23.008Z,18.00
2019-02-20T09:10:53.186Z,19.60
2019-02-20T09:13:23.358Z,19.17
2019-02-20T09:15:53.523Z,18.30
2019-02-20T09:18:23.712Z,17.10
2019-02-20T09:20:53.916Z,21.60
2019-02-20T09:23:24.148Z,20.70
2019-02-20T09:25:54.307Z,20.43
2019-02-20T09:28:24.488Z,20.53
2019-02-20T09:30:54.672Z,20.73
2019-02-20T09:33:24.840Z,19.40
2019-02-20T09:35:56.240Z,19.30
2019-02-20T09:38:27.388Z,19.73
2019-02-20T09:40:57.545Z,21.13
2019-02-20T09:43:27.728Z,20.20
2019-02-20T09:45:57.907Z,19.40
2019-02-20T09:48:29.146Z,20.90
2019-02-20T09:50:59.328Z,18.60
2019-02-20T09:53:29.561Z,21.07
2019-02-20T09:55:59.745Z,18.40
2019-02-20T09:58:30.005Z,18.80
2019-02-20T10:01:00.186Z,19.33
2019-02-20T10:03:30.356Z,17.80
2019-02-20T10:06:00.540Z,17.10
2019-02-20T10:08:30.694Z,16.70
2019-02-20T10:11:00.857Z,19.07
2019-02-20T10:13:31.002Z,17.47
2019-02-20T10:16:01.171Z,19.17
2019-02-20T10:18:31.367Z,19.17
2019-02-20T10:21:01.613Z,17.90
2019-02-20T10:23:31.791Z,17.13
2019-02-20T10:26:01.965Z,18.43
2019-02-20T10:28:32.135Z,15.97
2019-02-20T10:31:02.332Z,17.40
2019-02-20T10:33:32.584Z,17.43
2019-02-20T10:36:02.744Z,15.30
2019-02-20T10:38:33.944Z,14.47
2019-02-20T10:41:04.129Z,16.90
2019-02-20T10:43:35.272Z,16.50
2019-02-20T10:46:05.524Z,15.23
2019-02-20T10:48:35.773Z,16.13
2019-02-20T10:51:05.987Z,14.67
2019-02-20T10:53:36.159Z,15.67
2019-02-20T10:56:09.313Z,14.87
2019-02-20T10:58:38.383Z,14.80
2019-02-20T11:01:08.563Z,13.23
2019-02-20T11:03:38.669Z,13.80
2019-02-20T11:06:08.824Z,13.10
2019-02-20T11:08:39.002Z,13.97
2019-02-20T11:11:09.188Z,14.43
2019-02-20T11:13:39.345Z,13.40
2019-02-20T11:16:09.506Z,11.93
2019-02-20T11:18:39.663Z,13.20
2019-02-20T11:21:09.857Z,13.40
2019-02-20T11:23:40.069Z,12.40
2019-02-20T11:26:17.977Z,12.27
2019-02-20T11:28:42.116Z,11.77
2019-02-20T11:31:12.286Z,10.77
2019-02-20T11:33:42.479Z,11.40
2019-02-20T11:36:12.641Z,12.07
2019-02-20T11:38:42.827Z,11.73
2019-02-20T11:41:13.522Z,11.10
2019-02-20T11:43:43.757Z,10.60
2019-02-20T11:46:13.928Z,10.47
2019-02-20T11:48:44.110Z,9.83
2019-02-20T11:51:14.272Z,9.60
2019-02-20T11:53:46.093Z,9.77
2019-02-20T11:56:17.404Z,10.77
2019-02-20T11:58:47.620Z,9.00
2019-02-20T12:01:17.796Z,10.40
2019-02-20T12:03:47.995Z,11.10
2019-02-20T12:06:18.188Z,10.40
2019-02-20T12:08:48.432Z,9.50
2019-02-20T12:11:19.508Z,9.93
2019-02-20T12:13:49.699Z,9.70
2019-02-20T12:16:19.871Z,9.37
2019-02-20T12:18:50.039Z,10.60
2019-02-20T12:21:20.207Z,9.50
2019-02-20T12:23:51.342Z,7.37
2019-02-20T12:26:24.035Z,9.90
2019-02-20T12:28:54.350Z,8.80
2019-02-20T12:31:24.570Z,7.70
2019-02-20T12:33:54.733Z,7.80
2019-02-20T12:36:24.939Z,7.10
2019-02-20T12:38:55.108Z,7.53
2019-02-20T12:41:25.256Z,8.00
2019-02-20T12:43:55.428Z,7.10
2019-02-20T12:46:25.563Z,6.30
2019-02-20T12:48:55.777Z,7.20
2019-02-20T12:51:25.935Z,7.20
2019-02-20T12:53:56.109Z,6.20
2019-02-20T12:56:26.280Z,6.60
2019-02-20T12:58:56.466Z,6.00
2019-02-20T13:01:26.622Z,5.97
2019-02-20T13:03:56.788Z,6.07
2019-02-20T13:06:26.976Z,6.60
2019-02-20T13:08:57.147Z,5.37
2019-02-20T13:11:27.292Z,6.03
2019-02-20T13:13:57.470Z,5.30
2019-02-20T13:16:27.628Z,5.63
2019-02-20T13:18:57.783Z,5.97
2019-02-20T13:21:27.960Z,5.37
2019-02-20T13:23:58.159Z,5.30
2019-02-20T13:26:28.338Z,5.90
2019-02-20T13:28:58.500Z,5.87
2019-02-20T13:31:28.659Z,5.80
2019-02-20T13:33:58.847Z,5.60
2019-02-20T13:36:29.031Z,6.00
2019-02-20T13:38:59.263Z,5.70
2019-02-20T13:41:29.491Z,6.23
2019-02-20T13:43:59.723Z,6.00
2019-02-20T13:46:29.923Z,6.50
2019-02-20T13:49:00.287Z,6.63
2019-02-20T13:51:31.691Z,6.83
2019-02-20T13:54:01.844Z,7.97
2019-02-20T13:56:32.083Z,6.83
2019-02-20T13:59:02.336Z,6.90
2019-02-20T14:01:32.611Z,5.87
2019-02-20T14:04:02.796Z,7.80
2019-02-20T14:06:33.283Z,7.43
2019-02-20T14:09:12.068Z,9.27
2019-02-20T14:11:43.826Z,8.40
2019-02-20T14:14:14.124Z,7.93
2019-02-20T14:16:44.294Z,7.77
2019-02-20T14:19:14.755Z,7.83
2019-02-20T14:21:44.933Z,8.50
2019-02-20T14:24:15.204Z,7.50
2019-02-20T14:26:45.389Z,8.43
2019-02-20T14:29:15.593Z,8.53
2019-02-20T14:31:45.776Z,8.40
2019-02-20T14:34:16.231Z,8.50
2019-02-20T14:36:46.453Z,8.20
2019-02-20T14:39:17.679Z,7.90
2019-02-20T14:41:47.974Z,7.10
2019-02-20T14:44:18.168Z,7.50
2019-02-20T14:46:48.376Z,6.87
2019-02-20T14:49:18.556Z,7.30
2019-02-20T14:51:48.791Z,7.90
2019-02-20T14:54:19.075Z,7.93
2019-02-20T14:56:49.325Z,7.90
2019-02-20T14:59:19.504Z,7.10
2019-02-20T15:01:49.987Z,6.37
2019-02-20T15:04:20.240Z,7.23
2019-02-20T15:06:50.397Z,6.70
2019-02-20T15:09:20.746Z,7.47
2019-02-20T15:11:51.000Z,7.67
2019-02-20T15:14:21.219Z,7.33
2019-02-20T15:16:51.779Z,6.33
2019-02-20T15:19:23.024Z,6.80
2019-02-20T15:21:53.308Z,6.97
2019-02-20T15:24:23.568Z,7.10
2019-02-20T15:26:53.796Z,7.50
2019-02-20T15:29:24.110Z,6.53
2019-02-20T15:31:54.375Z,7.57
2019-02-20T15:34:24.553Z,7.43
2019-02-20T15:36:54.755Z,6.80
2019-02-20T15:39:24.923Z,8.00
2019-02-20T15:41:55.228Z,8.10
2019-02-20T15:44:25.504Z,7.47
2019-02-20T15:46:55.734Z,8.57
2019-02-20T15:49:26.048Z,7.70
2019-02-20T15:51:56.315Z,7.90
2019-02-20T15:54:26.554Z,7.70
2019-02-20T15:56:56.823Z,8.97
2019-02-20T15:59:27.067Z,8.70
2019-02-20T16:01:57.307Z,8.60
2019-02-20T16:04:27.500Z,8.87
2019-02-20T16:06:57.691Z,9.97
2019-02-20T16:09:27.848Z,9.27
2019-02-20T16:11:58.052Z,9.70
2019-02-20T16:14:28.591Z,9.13
2019-02-20T16:16:58.848Z,9.40
2019-02-20T16:19:29.026Z,10.57
2019-02-20T16:21:59.214Z,9.50
2019-02-20T16:24:29.406Z,9.80
2019-02-20T16:26:59.580Z,10.03
2019-02-20T16:29:30.131Z,9.80
2019-02-20T16:32:00.384Z,9.60
2019-02-20T16:34:30.593Z,10.50
2019-02-20T16:37:01.823Z,9.77
2019-02-20T16:39:32.088Z,10.43
2019-02-20T16:42:02.271Z,10.00
2019-02-20T16:44:32.463Z,10.10
2019-02-20T16:47:02.685Z,11.47
2019-02-20T16:49:32.880Z,10.17
2019-02-20T16:52:03.038Z,9.83
2019-02-20T16:54:33.280Z,11.13
2019-02-20T16:57:03.498Z,10.50
2019-02-20T16:59:33.801Z,10.70
2019-02-20T17:02:04.134Z,11.00
2019-02-20T17:04:34.315Z,10.67
2019-02-20T17:07:04.671Z,10.77
2019-02-20T17:09:34.862Z,10.47
2019-02-20T17:12:05.443Z,11.30
2019-02-20T17:14:36.599Z,10.80
2019-02-20T17:17:06.975Z,10.67
2019-02-20T17:19:37.170Z,10.20
2019-02-20T17:22:07.453Z,11.20
2019-02-20T17:24:37.600Z,11.30
2019-02-20T17:27:07.962Z,11.90
2019-02-20T17:29:38.152Z,12.43
2019-02-20T17:32:08.338Z,10.90
2019-02-20T17:34:38.508Z,12.77
2019-02-20T17:37:08.993Z,11.53
2019-02-20T17:39:39.233Z,11.27
2019-02-20T17:42:09.449Z,11.97
2019-02-20T17:44:39.649Z,12.13
2019-02-20T17:47:09.892Z,11.33
2019-02-20T17:49:40.055Z,12.57
2019-02-20T17:52:10.280Z,12.37
2019-02-20T17:54:40.763Z,13.00
2019-02-20T17:57:11.334Z,13.60
2019-02-20T17:59:41.664Z,12.17
2019-02-20T18:02:11.892Z,13.10
2019-02-20T18:04:42.192Z,13.23
2019-02-20T18:07:12.395Z,14.23
2019-02-20T18:09:42.643Z,13.60
2019-02-20T18:12:12.823Z,14.50
2019-02-20T18:14:43.116Z,14.20
2019-02-20T18:17:13.301Z,14.20
2019-02-20T18:19:43.596Z,14.17
2019-02-20T18:22:13.809Z,14.30
2019-02-20T18:24:44.047Z,14.70
2019-02-20T18:27:14.255Z,13.70
2019-02-20T18:29:44.496Z,14.60
2019-02-20T18:32:14.675Z,12.97
2019-02-20T18:34:44.873Z,14.40
2019-02-20T18:37:15.055Z,14.07
2019-02-20T18:39:45.312Z,14.60
2019-02-20T18:42:15.577Z,14.10
2019-02-20T18:44:45.796Z,12.87
2019-02-20T18:47:16.046Z,13.63
2019-02-20T18:49:46.273Z,13.87
2019-02-20T18:52:16.490Z,13.17
2019-02-20T18:54:46.683Z,12.83
2019-02-20T18:57:17.027Z,13.23
2019-02-20T18:59:47.283Z,13.63
2019-02-20T19:02:17.465Z,14.80
2019-02-20T19:04:47.733Z,13.53
2019-02-20T19:07:18.091Z,13.63
2019-02-20T19:09:49.770Z,14.37
2019-02-20T19:12:42.820Z,14.50
2019-02-20T19:15:45.151Z,14.00
2019-02-20T19:18:41.756Z,14.70
2019-02-20T19:21:28.296Z,13.90
2019-02-20T19:24:30.132Z,13.80
2019-02-20T19:27:16.316Z,14.20
2019-02-20T19:30:36.556Z,13.50
2019-02-20T19:33:20.637Z,14.73
2019-02-20T19:36:34.944Z,13.90
2019-02-20T19:39:38.416Z,13.13
2019-02-20T19:42:46.860Z,13.60
2019-02-20T19:46:00.263Z,14.47
2019-02-20T19:49:05.235Z,14.30
2019-02-20T19:52:02.795Z,15.00
2019-02-20T19:54:43.692Z,14.00
2019-02-20T19:57:42.515Z,15.13
2019-02-20T20:00:38.505Z,15.47
2019-02-20T20:03:56.242Z,14.47
2019-02-20T20:06:52.514Z,13.70
2019-02-20T20:10:06.764Z,15.20
2019-02-20T20:13:08.904Z,13.40
2019-02-20T20:16:17.588Z,14.17
2019-02-20T20:19:16.417Z,15.50
2019-02-20T20:22:09.864Z,13.93
2019-02-20T20:25:20.362Z,15.00
2019-02-20T20:28:17.634Z,16.60
2019-02-20T20:31:49.995Z,15.20
2019-02-20T20:34:57.298Z,14.60
2019-02-20T20:37:40.446Z,16.03
2019-02-20T20:40:41.993Z,15.47
2019-02-20T20:43:42.566Z,15.47
2019-02-20T20:46:45.362Z,16.80
2019-02-20T20:49:45.304Z,15.93
2019-02-20T20:52:55.198Z,17.70
2019-02-20T20:56:20.340Z,15.63
2019-02-20T20:59:42.353Z,14.80
2019-02-20T21:02:22.341Z,16.00
2019-02-20T21:05:13.269Z,14.90
2019-02-20T21:07:50.946Z,16.00
2019-02-20T21:11:07.171Z,18.40
2019-02-20T21:13:58.892Z,17.57
2019-02-20T21:17:40.000Z,15.37
2019-02-20T21:20:39.736Z,17.47
2019-02-20T21:23:49.384Z,16.03
2019-02-20T21:26:49.092Z,15.90
2019-02-20T21:30:13.558Z,14.67
2019-02-20T21:33:15.740Z,15.33
2019-02-20T21:36:37.168Z,15.80
2019-02-20T21:39:32.610Z,14.40
2019-02-20T21:42:33.543Z,18.70
2019-02-20T21:45:34.932Z,15.33
2019-02-20T21:48:44.540Z,15.27
2019-02-20T21:51:47.048Z,15.60
2019-02-20T21:54:56.115Z,14.17
2019-02-20T21:57:52.149Z,15.53
2019-02-20T22:00:59.147Z,16.90
2019-02-20T22:04:15.424Z,16.00
2019-02-20T22:07:15.124Z,16.13
2019-02-20T22:10:16.357Z,14.73
2019-02-20T22:13:03.143Z,17.00
2019-02-20T22:15:53.026Z,16.30
2019-02-20T22:19:04.283Z,17.83
2019-02-20T22:21:59.750Z,16.97
2019-02-20T22:24:53.854Z,18.10
2019-02-20T22:27:37.067Z,17.47
2019-02-20T22:30:34.592Z,17.23
2019-02-20T22:33:22.020Z,17.60
2019-02-20T22:36:19.795Z,17.43
2019-02-20T22:39:45.624Z,17.80
2019-02-20T22:42:29.195Z,18.53
2019-02-20T22:45:33.476Z,18.60
2019-02-20T22:48:16.653Z,19.30
2019-02-20T22:50:57.055Z,16.70
2019-02-20T22:54:22.980Z,18.87
2019-02-20T22:57:30.097Z,18.07
2019-02-20T23:00:48.609Z,17.50
2019-02-20T23:03:30.655Z,18.80
2019-02-20T23:06:20.890Z,18.63
2019-02-20T23:09:52.608Z,18.40
2019-02-20T23:12:52.439Z,19.43
2019-02-20T23:15:22.684Z,18.63
2019-02-20T23:17:52.847Z,18.90
2019-02-20T23:20:23.053Z,19.47
2019-02-20T23:22:53.236Z,19.00
2019-02-20T23:25:23.385Z,20.30
2019-02-20T23:27:53.548Z,18.43
2019-02-20T23:30:23.724Z,19.07
2019-02-20T23:32:53.886Z,19.07
2019-02-20T23:35:24.064Z,21.20
2019-02-20T23:37:54.230Z,19.43
2019-02-20T23:40:24.433Z,19.70
2019-02-20T23:42:54.644Z,19.70
2019-02-20T23:45:24.805Z,21.20
2019-02-20T23:47:54.970Z,20.60
2019-02-20T23:50:25.152Z,19.70
2019-02-20T23:52:55.351Z,20.20
2019-02-20T23:55:25.547Z,21.00
2019-02-20T23:57:55.735Z,19.90
